createdAt,value
2022-09-05T00:04:54.569Z,81.70
2022-09-05T00:10:25.619Z,80.80
2022-09-05T00:15:59.483Z,80.53
2022-09-05T00:24:27.646Z,80.26
2022-09-05T00:27:36.510Z,81.29
2022-09-05T00:33:22.061Z,82.25
2022-09-05T00:38:58.889Z,83.09
2022-09-05T00:44:28.468Z,83.86
2022-09-05T00:50:00.298Z,84.39
2022-09-05T00:55:35.921Z,84.71
2022-09-05T01:01:01.229Z,85.07
2022-09-05T01:06:41.367Z,85.09
2022-09-05T01:12:18.928Z,85.30
2022-09-05T01:18:02.298Z,85.79
2022-09-05T01:23:53.254Z,86.43
2022-09-05T01:29:26.930Z,86.16
2022-09-05T01:35:04.022Z,85.95
2022-09-05T01:40:30.012Z,85.78
2022-09-05T01:45:56.799Z,86.12
2022-09-05T01:51:33.266Z,86.88
2022-09-05T01:57:09.042Z,87.57
2022-09-05T02:02:50.478Z,87.74
2022-09-05T02:08:49.709Z,88.19
2022-09-05T02:14:34.005Z,88.31
2022-09-05T02:20:23.961Z,88.66
2022-09-05T02:26:02.787Z,88.96
2022-09-05T02:31:36.598Z,89.19
2022-09-05T02:37:13.602Z,89.08
2022-09-05T02:45:12.662Z,88.96
2022-09-05T02:48:46.593Z,88.90
2022-09-05T02:57:42.882Z,88.67
2022-09-05T03:00:09.242Z,89.00
2022-09-05T03:05:58.177Z,88.87
2022-09-05T03:11:38.090Z,88.81
2022-09-05T03:17:34.999Z,88.78
2022-09-05T03:23:38.149Z,89.15
2022-09-05T03:29:24.433Z,88.98
2022-09-05T03:35:23.105Z,89.12
2022-09-05T03:41:07.017Z,88.35
2022-09-05T03:46:48.842Z,88.40
2022-09-05T03:57:20.725Z,88.70
2022-09-05T04:08:18.855Z,87.86
2022-09-05T04:10:29.307Z,87.86
2022-09-05T04:16:06.985Z,87.92
2022-09-05T04:21:35.628Z,87.92
2022-09-05T04:27:30.134Z,87.78
2022-09-05T04:33:03.035Z,87.98
2022-09-05T04:38:40.614Z,87.87
2022-09-05T04:44:10.901Z,87.66
2022-09-05T04:49:39.588Z,86.97
2022-09-05T04:55:12.028Z,86.18
2022-09-05T05:05:58.367Z,85.94
2022-09-05T05:06:45.466Z,85.39
2022-09-05T05:17:59.703Z,85.38
2022-09-05T05:18:53.141Z,85.29
2022-09-05T05:24:11.959Z,84.62
2022-09-05T05:29:48.037Z,84.63
2022-09-05T05:35:20.396Z,84.20
2022-09-05T05:40:51.613Z,84.07
2022-09-05T05:46:27.450Z,83.53
2022-09-05T05:52:06.578Z,82.79
2022-09-05T05:58:07.965Z,82.74
2022-09-05T06:03:58.094Z,81.84
2022-09-05T06:14:50.623Z,81.57
2022-09-05T06:16:17.792Z,80.89
2022-09-05T06:22:36.303Z,81.03
2022-09-05T06:28:18.455Z,81.00
2022-09-05T06:34:04.531Z,80.83
2022-09-05T06:39:46.543Z,80.73
2022-09-05T06:45:44.172Z,80.79
2022-09-05T06:52:16.516Z,80.63
2022-09-05T06:58:15.243Z,80.31
2022-09-05T07:05:23.084Z,79.67
2022-09-05T07:10:12.093Z,79.21
2022-09-05T07:15:56.404Z,79.10
2022-09-05T07:21:29.214Z,78.17
2022-09-05T07:26:55.863Z,78.00
2022-09-05T07:32:24.436Z,78.10
2022-09-05T07:37:57.887Z,77.25
2022-09-05T07:43:27.902Z,76.87
2022-09-05T07:49:01.234Z,76.83
2022-09-05T07:57:01.850Z,76.52
2022-09-05T08:00:29.548Z,76.10
2022-09-05T08:05:58.215Z,74.50
2022-09-05T08:11:26.527Z,74.58
2022-09-05T08:16:54.150Z,73.81
2022-09-05T08:22:24.590Z,72.07
2022-09-05T08:28:03.358Z,71.26
2022-09-05T08:33:33.530Z,70.39
2022-09-05T08:39:01.041Z,70.06
2022-09-05T08:46:39.658Z,70.38
2022-09-05T08:50:50.202Z,70.16
2022-09-05T08:56:22.390Z,68.58
2022-09-05T09:02:44.920Z,67.25
2022-09-05T09:07:53.072Z,67.40
2022-09-05T09:13:40.257Z,65.84
2022-09-05T09:19:13.085Z,65.90
2022-09-05T09:24:43.404Z,65.66
2022-09-05T09:30:13.799Z,66.22
2022-09-05T09:35:53.307Z,65.58
2022-09-05T09:41:52.573Z,65.10
2022-09-05T09:47:30.772Z,63.45
2022-09-05T09:53:18.813Z,62.77
2022-09-05T09:59:06.581Z,63.96
2022-09-05T10:10:37.981Z,63.18
2022-09-05T10:17:20.524Z,60.79
2022-09-05T10:23:01.001Z,60.01
2022-09-05T10:28:40.793Z,59.92
2022-09-05T10:35:14.236Z,60.57
2022-09-05T10:40:11.238Z,61.21
2022-09-05T10:45:52.909Z,60.80
2022-09-05T10:51:27.942Z,59.99
2022-09-05T10:57:01.829Z,60.16
2022-09-05T11:02:38.289Z,59.34
2022-09-05T11:08:11.297Z,59.02
2022-09-05T11:13:47.327Z,57.33
2022-09-05T11:19:20.756Z,57.97
2022-09-05T11:24:55.820Z,58.08
2022-09-05T11:30:29.976Z,57.55
2022-09-05T11:40:06.568Z,56.97
2022-09-05T11:42:23.131Z,57.21
2022-09-05T11:48:30.526Z,57.65
2022-09-05T11:54:20.680Z,57.75
2022-09-05T12:00:32.541Z,57.48
2022-09-05T12:06:16.443Z,56.93
2022-09-05T12:11:56.762Z,55.96
2022-09-05T12:17:35.817Z,56.44
2022-09-05T12:23:07.948Z,56.02
2022-09-05T12:29:29.283Z,55.50
2022-09-05T12:36:06.884Z,54.94
2022-09-05T12:41:34.653Z,53.53
2022-09-05T12:46:29.099Z,54.25
2022-09-05T12:52:04.720Z,54.19
2022-09-05T13:02:00.103Z,54.38
2022-09-05T13:03:28.383Z,54.65
2022-09-05T13:09:03.129Z,53.94
2022-09-05T13:14:57.074Z,52.40
2022-09-05T13:20:34.437Z,52.62
2022-09-05T13:26:05.058Z,52.12
2022-09-05T13:37:59.138Z,52.74
2022-09-05T13:43:48.652Z,50.96
2022-09-05T13:49:26.600Z,50.87
2022-09-05T13:55:04.353Z,51.56
2022-09-05T14:01:15.745Z,52.46
2022-09-05T14:13:02.449Z,51.20
2022-09-05T14:18:34.025Z,50.91
2022-09-05T14:24:04.682Z,51.27
2022-09-05T14:29:36.740Z,50.93
2022-09-05T14:37:43.109Z,49.48
2022-09-05T14:40:54.052Z,49.92
2022-09-05T14:46:28.269Z,49.60
2022-09-05T14:51:47.969Z,49.08
2022-09-05T15:02:09.654Z,49.12
2022-09-05T15:02:58.087Z,49.42
2022-09-05T15:08:14.859Z,50.38
2022-09-05T15:13:35.026Z,51.43
2022-09-05T15:18:46.581Z,51.01
2022-09-05T15:24:02.918Z,49.57
2022-09-05T15:29:18.883Z,50.20
2022-09-05T15:34:33.215Z,49.20
2022-09-05T15:39:41.239Z,49.17
2022-09-05T15:45:11.131Z,49.91
2022-09-05T15:50:26.586Z,49.66
2022-09-05T15:55:50.494Z,50.37
2022-09-05T16:01:45.064Z,51.11
2022-09-05T16:10:50.848Z,51.05
2022-09-05T16:12:38.227Z,51.36
2022-09-05T16:23:15.258Z,51.84
2022-09-05T16:23:40.671Z,51.78
2022-09-05T16:28:52.199Z,52.17
2022-09-05T16:34:00.999Z,52.45
2022-09-05T16:39:22.214Z,53.25
2022-09-05T16:44:36.979Z,53.27
2022-09-05T16:49:55.350Z,53.35
2022-09-05T16:55:13.134Z,53.62
2022-09-05T17:00:20.604Z,53.88
2022-09-05T17:05:36.465Z,54.12
2022-09-05T17:10:57.407Z,54.39
2022-09-05T17:16:06.802Z,54.46
2022-09-05T17:21:36.511Z,54.74
2022-09-05T17:29:34.492Z,55.24
2022-09-05T17:32:28.505Z,55.55
2022-09-05T17:38:11.675Z,55.71
2022-09-05T17:43:29.174Z,55.79
2022-09-05T17:49:19.655Z,55.97
2022-09-05T17:54:33.723Z,56.08
2022-09-05T17:59:41.970Z,56.36
2022-09-05T18:04:50.769Z,56.47
2022-09-05T18:10:14.936Z,56.51
2022-09-05T18:15:59.756Z,57.05
2022-09-05T18:21:26.237Z,57.24
2022-09-05T18:26:41.801Z,57.06
2022-09-05T18:32:02.862Z,56.42
2022-09-05T18:37:49.450Z,56.28
2022-09-05T18:42:57.395Z,55.75
2022-09-05T18:53:35.930Z,56.12
2022-09-05T18:58:53.560Z,55.56
2022-09-05T19:04:05.628Z,56.15
2022-09-05T19:09:15.874Z,55.83
2022-09-05T19:14:34.092Z,56.07
2022-09-05T19:20:32.028Z,55.92
2022-09-05T19:25:43.875Z,55.00
2022-09-05T19:37:04.606Z,55.72
2022-09-05T19:37:05.309Z,55.77
2022-09-05T19:47:36.182Z,55.73
2022-09-05T19:47:55.889Z,55.36
2022-09-05T19:53:08.470Z,54.59
2022-09-05T19:58:20.964Z,54.73
2022-09-05T20:03:28.392Z,55.38
2022-09-05T20:08:42.459Z,55.09
2022-09-05T20:13:49.394Z,55.19
2022-09-05T20:18:56.451Z,55.37
2022-09-05T20:24:03.886Z,55.39
2022-09-05T20:29:13.952Z,54.52
2022-09-05T20:36:26.573Z,54.92
2022-09-05T20:43:35.265Z,55.33
2022-09-05T20:45:44.901Z,54.98
2022-09-05T20:54:24.996Z,55.31
2022-09-05T20:56:31.255Z,56.23
2022-09-05T21:01:43.061Z,56.52
2022-09-05T21:06:52.652Z,55.78
2022-09-05T21:12:06.509Z,55.63
2022-09-05T21:17:23.885Z,54.97
2022-09-05T21:22:43.123Z,55.11
2022-09-05T21:28:05.802Z,55.76
2022-09-05T21:33:18.461Z,55.78
2022-09-05T21:38:45.079Z,55.94
2022-09-05T21:47:40.635Z,55.52
2022-09-05T21:49:19.262Z,54.75
2022-09-05T21:59:20.898Z,54.44
2022-09-05T21:59:58.020Z,54.68
2022-09-05T22:05:14.744Z,55.34
2022-09-05T22:10:22.715Z,55.11
2022-09-05T22:15:43.312Z,54.75
2022-09-05T22:21:32.017Z,54.71
2022-09-05T22:26:21.769Z,55.12
2022-09-05T22:31:32.697Z,54.65
2022-09-05T22:36:39.897Z,55.09
2022-09-05T22:41:48.147Z,55.27
2022-09-05T22:46:56.233Z,55.09
2022-09-05T22:52:03.539Z,55.62
2022-09-05T22:57:10.775Z,55.77
2022-09-05T23:02:17.929Z,56.37
2022-09-05T23:07:25.071Z,55.82
2022-09-05T23:12:35.878Z,56.28
2022-09-05T23:17:45.316Z,56.70
2022-09-05T23:22:52.249Z,56.14
2022-09-05T23:27:59.617Z,56.31
2022-09-05T23:33:08.695Z,56.81
2022-09-05T23:38:15.749Z,56.84
2022-09-05T23:43:25.670Z,56.89
2022-09-05T23:48:32.979Z,57.14
2022-09-05T23:53:40.426Z,57.24
2022-09-05T23:58:47.811Z,57.38
